• Join FlightAware (Why Join?)
  • Login
  • US Flag 
05:45PM EDT


 

Airport Tracker/Info


-or-


 

Live Flight TrackerFlight Track Log ✈ WAV261 ✈ 03-May-2013 ✈ PFYU - PAFA / FAI

Flight Track Log - Related Links

Times and Time Zones

All times are in EDT time to prevent confusion due to time zone crossing. See the WAV261 flight status page for this flight to view local times or setup timezone preferences in your user account.

Time Position Orientation Groundspeed Altitude Reporting Facility
EDT Latitude Longitude Course Direction KTS MPH feet Rate Location/Type
11:01PM 66.4667 -145.4167 212° Southwest 160 184 3,800  Level Anchorage Center
11:02PM 66.4333 -145.4667 211° Southwest 160 184 4,600 900 Climbing Anchorage Center
11:03PM 66.4000 -145.5333 219° Southwest 150 173 5,600 1,020 Climbing Anchorage Center
11:04PM 66.3667 -145.5833 211° Southwest 150 173 6,700 960 Climbing Anchorage Center
11:05PM 66.3167 -145.6167 195° South 160 184 7,600 600 Climbing Anchorage Center
11:06PM 66.2833 -145.6667 211° Southwest 160 184 8,000 180 Climbing Anchorage Center
11:07PM 66.2383 -145.7469 212° Southwest  Level FlightAware Approximate
11:07PM 66.2500 -145.7333 219° Southwest 160 184 8,000  Level Anchorage Center
11:08PM 66.2167 -145.7833 211° Southwest 160 184 8,000  Level Anchorage Center
11:09PM 66.1833 -145.8333 211° Southwest 150 173 8,000  Level Anchorage Center
11:10PM 66.1333 -145.9000 208° Southwest 160 184 8,000  Level Anchorage Center
11:11PM 66.1000 -145.9667 219° Southwest 160 184 8,000  Level Anchorage Center
11:12PM 66.0667 -146.0167 211° Southwest 160 184 8,000  Level Anchorage Center
11:13PM 66.0333 -146.0833 219° Southwest 160 184 8,000  Level Anchorage Center
11:14PM 65.9833 -146.1333 202° Southwest 160 184 8,000  Level Anchorage Center
11:15PM 65.9500 -146.2000 219° Southwest 160 184 8,000  Level Anchorage Center
11:16PM 65.9167 -146.2667 219° Southwest 150 173 8,000  Level Anchorage Center
11:17PM 65.8833 -146.3167 212° Southwest 150 173 8,000  Level Anchorage Center
11:18PM 65.8500 -146.3833 219° Southwest 160 184 8,000  Level Anchorage Center
11:20PM 65.7667 -146.4833 206° Southwest 150 173 8,000  Level Anchorage Center
11:21PM 65.7333 -146.5500 219° Southwest 160 184 8,000  Level Anchorage Center
11:22PM 65.7000 -146.6000 212° Southwest 150 173 8,000  Level Anchorage Center
11:23PM 65.6500 -146.6500 202° Southwest 150 173 8,000  Level Anchorage Center
11:24PM 65.6167 -146.7000 212° Southwest 190 219 8,000  Level Anchorage Center
11:25PM 65.5833 -146.7500 212° Southwest 150 173 8,000  Level Anchorage Center
11:26PM 65.5500 -146.8000 212° Southwest 160 184 8,000  Level Anchorage Center
11:27PM 65.5000 -146.8500 203° Southwest 160 184 8,000  Level Anchorage Center
11:28PM 65.4667 -146.8833 203° Southwest 140 161 8,000  Level Anchorage Center
11:30PM 65.4295 -146.9423 213° Southwest  Level FlightAware Approximate
11:37PM 65.1804 -147.3358 209° Southwest  Level FlightAware Approximate
11:38PM 65.1426 -147.3849 209° Southwest  Level FlightAware Approximate
11:39PM 65.1048 -147.4340 209° Southwest  Level FlightAware Approximate
11:40PM 65.0670 -147.4829 209° Southwest  Level FlightAware Approximate
11:41PM 65.0299 -147.5347 211° Southwest  Level FlightAware Approximate
11:42PM 64.9928 -147.5863 210° Southwest  Level FlightAware Approximate
11:43PM 64.9556 -147.6378 210° Southwest  Level FlightAware Approximate
11:44PM 64.9184 -147.6892 210° Southwest  Level FlightAware Approximate
11:45PM 64.8812 -147.7404 210° Southwest  Level FlightAware Approximate
11:46PM 64.8440 -147.7914 210° Southwest  Level FlightAware Approximate
11:47PM 64.8065 -147.8413 210° Southwest  Level FlightAware Approximate
11:48PM 64.8000 -147.8500 210° Southwest  Level FlightAware Approximate
11:49PM 64.8151 -147.8564 210° Southwest  Level Estimated
11:50PM 64.8151 -147.8564 210° Southwest  Level Estimated
11:51PM 64.8151 -147.8564 210° Southwest  Level Estimated
11:52PM 64.8151 -147.8564 210° Southwest  Level Estimated
11:53PM 64.8151 -147.8564 210° Southwest  Level Estimated
11:54PM 64.8151 -147.8564 210° Southwest  Level Estimated
11:55PM 64.8151 -147.8564 210° Southwest  Level Estimated
11:56PM 64.8151 -147.8564 210° Southwest  Level Estimated
11:57PM 64.8151 -147.8564 210° Southwest  Level Estimated
11:58PM 64.8151 -147.8564 210° Southwest  Level Estimated
11:59PM 64.8151 -147.8564 210° Southwest  Level Estimated
12:00AM 64.8151 -147.8564 210° Southwest  Level Estimated
12:01AM 64.8151 -147.8564 210° Southwest  Level Estimated